LIPX/VRN METAR and TAF weather

Enter ICAO airport designator
Station Type Date Time Source
LIPX METAR 2021/07/30 06:50 UTC NOAA

LIPX 300650Z VRB01KT CAVOK 26/19 Q1012


Station Type Date Time Source
LIPX Decoded METAR 2021/07/30 06:50 UTC NOAA

Verona / Villafranca, Italy (LIPX) 45-23N 010-52E 68M
Jul 30, 2021 - 02:50 AM EDT / 2021.07.30 0650 UTC
Wind: Variable at 1 MPH (1 KT):0
Visibility: greater than 7 mile(s):0
Temperature: 78 F (26 C)
Dew Point: 66 F (19 C)
Relative Humidity: 65%
Pressure (altimeter): 29.88 in. Hg (1012 hPa)
ob: LIPX 300650Z VRB01KT CAVOK 26/19 Q1012
cycle: 7

Station Type Date Time Source
LIPX TAF 2021/07/30 06:21 UTC NOAA

TAF LIPX 300500Z 3006/3106 VRB06KT 9999 FEW030

Example: see airport list